Time;durP1;ratioP1;P1;durP2;ratioP2;P2;SDS_P1;SDS_P2;PMS_P1;PMS_P2;Temp;Humidity;BMP_temperature;BMP_pressure;BME280_temperature;BME280_humidity;BME280_pressure;Samples;Min_cycle;Max_cycle;Signal;HPM_P1;HPM_P2
2022/10/22 00:01:40;;;;;;;20.70;13.13;;;4.30;99.90;;;;;;5092087;28;20219;-68
2022/10/22 00:04:07;;;;;;;22.00;13.33;;;4.30;99.90;;;;;;5091644;28;20240;-69
2022/10/22 00:06:34;;;;;;;23.03;12.77;;;4.30;99.90;;;;;;5092352;28;20204;-68
2022/10/22 00:09:01;;;;;;;22.50;13.37;;;4.30;99.90;;;;;;5091876;28;20199;-68
2022/10/22 00:11:27;;;;;;;20.90;13.77;;;4.30;99.90;;;;;;5091501;28;20239;-70
2022/10/22 00:13:54;;;;;;;21.70;13.40;;;4.30;99.90;;;;;;5091484;28;20210;-69
2022/10/22 00:16:21;;;;;;;21.17;13.10;;;4.40;99.90;;;;;;5091702;28;20604;-69
2022/10/22 00:18:49;;;;;;;21.93;12.73;;;4.30;99.90;;;;;;5091060;28;20230;-69
2022/10/22 00:21:16;;;;;;;23.83;13.40;;;4.30;99.90;;;;;;5091774;28;20680;-70
2022/10/22 00:23:43;;;;;;;19.10;12.57;;;4.30;99.90;;;;;;5091585;28;20662;-70
2022/10/22 00:26:10;;;;;;;19.13;12.70;;;4.30;99.90;;;;;;5091089;28;20208;-69
2022/10/22 00:28:38;;;;;;;21.97;13.30;;;4.30;99.90;;;;;;5090866;28;20196;-70
2022/10/22 00:31:05;;;;;;;19.13;13.07;;;4.40;99.90;;;;;;5089253;28;20207;-69
2022/10/22 00:33:32;;;;;;;23.83;14.03;;;4.40;99.90;;;;;;5085691;28;20689;-70
2022/10/22 00:36:00;;;;;;;24.13;13.47;;;4.40;99.90;;;;;;5078317;28;20658;-71
2022/10/22 00:38:27;;;;;;;19.77;12.63;;;4.40;99.90;;;;;;5071514;28;20569;-71
2022/10/22 00:40:54;;;;;;;22.23;13.67;;;4.40;99.90;;;;;;5071136;28;20542;-71
2022/10/22 00:43:21;;;;;;;20.50;13.33;;;4.40;99.90;;;;;;5075000;28;20558;-71
2022/10/22 00:45:48;;;;;;;26.60;12.63;;;4.40;99.90;;;;;;5088960;28;20646;-71
2022/10/22 00:48:18;;;;;;;22.63;13.87;;;4.40;99.90;;;;;;5091721;28;20207;-71
2022/10/22 00:50:48;;;;;;;25.57;14.23;;;4.40;99.90;;;;;;5090910;28;20208;-71
2022/10/22 00:53:19;;;;;;;23.77;13.23;;;4.40;99.90;;;;;;5089756;28;20197;-71
2022/10/22 00:55:49;;;;;;;21.73;12.73;;;4.40;99.90;;;;;;5091239;28;20185;-71
2022/10/22 00:58:16;;;;;;;22.93;13.57;;;4.40;99.90;;;;;;5091715;28;20251;-70
2022/10/22 01:00:43;;;;;;;21.03;13.70;;;4.40;99.90;;;;;;5091322;28;20207;-71
2022/10/22 01:03:10;;;;;;;22.20;13.00;;;4.40;99.90;;;;;;5093457;28;20210;-69
2022/10/22 01:05:42;;;;;;;22.27;12.53;;;4.40;99.90;;;;;;5094756;28;20248;-71
2022/10/22 01:08:23;;;;;;;22.37;13.57;;;4.40;99.90;;;;;;5094947;28;20547;-70
2022/10/22 01:10:59;;;;;;;21.10;12.97;;;4.40;99.90;;;;;;5094523;28;20184;-71
2022/10/22 01:13:35;;;;;;;21.83;13.20;;;4.40;99.90;;;;;;5094004;28;20210;-70
2022/10/22 01:16:12;;;;;;;20.63;12.70;;;4.30;99.90;;;;;;5094809;28;20192;-70
2022/10/22 01:18:49;;;;;;;20.30;12.80;;;4.30;99.90;;;;;;5094844;28;20573;-70
2022/10/22 01:21:26;;;;;;;21.90;13.10;;;4.30;99.90;;;;;;5094862;28;20548;-71
2022/10/22 01:24:15;;;;;;;22.30;13.27;;;4.30;99.90;;;;;;5074230;28;20196;-71
2022/10/22 01:26:57;;;;;;;24.03;13.23;;;4.30;99.90;;;;;;5074186;28;20193;-70
2022/10/22 01:29:29;;;;;;;23.63;13.20;;;4.30;99.90;;;;;;5074417;28;20549;-71
2022/10/22 01:32:00;;;;;;;23.93;14.17;;;4.30;99.90;;;;;;5074081;28;20200;-71
2022/10/22 01:34:29;;;;;;;26.67;15.00;;;4.20;99.90;;;;;;5074545;28;20228;-70
2022/10/22 01:36:57;;;;;;;28.23;15.60;;;4.20;99.90;;;;;;5073991;28;20566;-70
2022/10/22 01:39:27;;;;;;;26.90;14.97;;;4.20;99.90;;;;;;5074535;28;20243;-70
2022/10/22 01:41:55;;;;;;;29.60;16.40;;;4.20;99.90;;;;;;5076060;28;20204;-71
2022/10/22 01:44:28;;;;;;;26.77;15.83;;;4.20;99.90;;;;;;5094393;28;20262;-71
2022/10/22 01:47:07;;;;;;;28.50;15.57;;;4.20;99.90;;;;;;5093839;28;20184;-70
2022/10/22 01:49:50;;;;;;;25.93;15.00;;;4.20;99.90;;;;;;5094208;28;20187;-71
2022/10/22 01:52:29;;;;;;;26.20;15.73;;;4.20;99.90;;;;;;5088302;28;20197;-71
2022/10/22 01:55:07;;;;;;;24.00;15.30;;;4.20;99.90;;;;;;5073525;28;20196;-71
2022/10/22 01:57:43;;;;;;;28.93;16.07;;;4.20;99.90;;;;;;5073861;28;20192;-71
2022/10/22 02:00:14;;;;;;;24.23;14.93;;;4.20;99.90;;;;;;5073755;28;20189;-71
2022/10/22 02:02:43;;;;;;;23.43;14.27;;;4.20;99.90;;;;;;5072979;28;20196;-71
2022/10/22 02:05:16;;;;;;;23.80;14.17;;;4.20;99.90;;;;;;5073208;28;20236;-70
2022/10/22 02:07:47;;;;;;;22.70;14.17;;;4.20;99.90;;;;;;5073316;28;20193;-72
2022/10/22 02:10:14;;;;;;;23.87;14.27;;;4.20;99.90;;;;;;5073459;28;20226;-71
2022/10/22 02:12:43;;;;;;;25.67;14.77;;;4.20;99.90;;;;;;5073654;28;20201;-70
2022/10/22 02:15:14;;;;;;;23.33;14.03;;;4.20;99.90;;;;;;5084602;28;20211;-71
2022/10/22 02:17:43;;;;;;;23.17;14.27;;;4.20;99.90;;;;;;5092785;28;20208;-71
2022/10/22 02:20:16;;;;;;;23.40;13.50;;;4.30;99.90;;;;;;5093510;28;20654;-71
2022/10/22 02:22:43;;;;;;;22.97;14.23;;;4.30;99.90;;;;;;5084360;28;20200;-70
2022/10/22 02:25:11;;;;;;;24.67;13.97;;;4.30;99.90;;;;;;5072893;28;20219;-70
2022/10/22 02:27:43;;;;;;;22.10;12.77;;;4.30;99.90;;;;;;5073018;28;20223;-71
2022/10/22 02:30:13;;;;;;;24.07;13.50;;;4.30;99.90;;;;;;5073162;28;20528;-70
2022/10/22 02:32:44;;;;;;;21.83;13.23;;;4.30;99.90;;;;;;5078896;28;20204;-69
2022/10/22 02:35:17;;;;;;;23.40;12.77;;;4.30;99.90;;;;;;5093369;28;20204;-69
2022/10/22 02:37:45;;;;;;;23.37;12.43;;;4.30;99.90;;;;;;5091399;28;20200;-71
2022/10/22 02:40:12;;;;;;;23.70;13.83;;;4.30;99.90;;;;;;5090366;28;20200;-70
2022/10/22 02:42:41;;;;;;;22.90;13.03;;;4.30;99.90;;;;;;5093100;28;20574;-69
2022/10/22 02:45:08;;;;;;;21.17;12.17;;;4.30;99.90;;;;;;5093285;28;20569;-69
2022/10/22 02:47:37;;;;;;;19.80;13.00;;;4.30;99.90;;;;;;5091844;28;20569;-70
2022/10/22 02:50:04;;;;;;;23.00;12.87;;;4.30;99.90;;;;;;5091947;28;20208;-70
2022/10/22 02:52:31;;;;;;;24.17;12.73;;;4.40;99.90;;;;;;5092922;28;20203;-71
2022/10/22 02:54:58;;;;;;;22.23;12.37;;;4.40;99.90;;;;;;5092949;28;20211;-71
2022/10/22 02:57:24;;;;;;;23.10;13.13;;;4.30;99.90;;;;;;5093012;28;20208;-70
2022/10/22 02:59:51;;;;;;;20.53;11.60;;;4.30;99.90;;;;;;5072449;28;20225;-70
2022/10/22 03:02:18;;;;;;;22.00;12.03;;;4.30;99.90;;;;;;5072492;28;20204;-69
2022/10/22 03:04:46;;;;;;;18.50;11.00;;;4.30;99.90;;;;;;5071971;28;20236;-70
2022/10/22 03:07:13;;;;;;;20.33;11.80;;;4.30;99.90;;;;;;5072481;28;20201;-70
2022/10/22 03:09:40;;;;;;;19.60;11.13;;;4.40;99.90;;;;;;5083129;28;20207;-70
2022/10/22 03:12:07;;;;;;;19.67;11.73;;;4.40;99.90;;;;;;5092486;28;20207;-70
2022/10/22 03:14:34;;;;;;;17.73;11.37;;;4.40;99.90;;;;;;5092193;28;20247;-71
2022/10/22 03:17:01;;;;;;;21.23;12.63;;;4.30;99.90;;;;;;5092488;28;20819;-70
2022/10/22 03:19:28;;;;;;;22.63;11.57;;;4.40;99.90;;;;;;5090429;28;20585;-70
2022/10/22 03:21:59;;;;;;;23.87;12.67;;;4.40;99.90;;;;;;5092507;28;20210;-70
2022/10/22 03:24:31;;;;;;;23.87;12.97;;;4.40;99.90;;;;;;5091477;28;20195;-70
2022/10/22 03:26:58;;;;;;;20.23;11.47;;;4.40;99.90;;;;;;5092315;28;20638;-71
2022/10/22 03:29:26;;;;;;;19.40;11.60;;;4.40;99.90;;;;;;5074464;28;20227;-71
2022/10/22 03:31:54;;;;;;;19.67;11.83;;;4.40;99.90;;;;;;5071839;28;20558;-71
2022/10/22 03:34:21;;;;;;;19.73;11.57;;;4.40;99.90;;;;;;5071892;28;20221;-69
2022/10/22 03:36:49;;;;;;;22.20;12.23;;;4.40;99.90;;;;;;5071963;28;20200;-70
2022/10/22 03:39:19;;;;;;;23.67;11.83;;;4.40;99.90;;;;;;5089011;28;20235;-70
2022/10/22 03:41:46;;;;;;;18.47;11.20;;;4.50;99.90;;;;;;5071683;28;20337;-71
2022/10/22 03:44:14;;;;;;;20.37;11.37;;;4.40;99.90;;;;;;5071880;28;20584;-70
2022/10/22 03:46:41;;;;;;;20.50;11.10;;;4.50;99.90;;;;;;5071575;28;20579;-70
2022/10/22 03:49:08;;;;;;;19.10;11.40;;;4.50;99.90;;;;;;5086359;28;20554;-70
2022/10/22 03:51:35;;;;;;;20.07;11.03;;;4.50;99.90;;;;;;5071485;28;20205;-69
2022/10/22 03:54:02;;;;;;;21.03;11.67;;;4.50;99.90;;;;;;5071674;28;20213;-68
2022/10/22 03:56:31;;;;;;;18.23;11.30;;;4.50;99.90;;;;;;5071616;28;20208;-69
2022/10/22 03:58:59;;;;;;;19.17;11.53;;;4.50;99.90;;;;;;5071613;28;20221;-70
2022/10/22 04:01:27;;;;;;;18.97;11.10;;;4.60;99.90;;;;;;5071406;28;20681;-70
2022/10/22 04:03:54;;;;;;;17.70;10.77;;;4.60;99.90;;;;;;5072823;28;20208;-69
2022/10/22 04:06:22;;;;;;;23.63;11.47;;;4.60;99.90;;;;;;5091541;28;20184;-70
2022/10/22 04:08:49;;;;;;;18.17;11.27;;;4.60;99.90;;;;;;5091856;28;20222;-69
2022/10/22 04:11:16;;;;;;;17.07;10.17;;;4.50;99.90;;;;;;5089469;28;20210;-70
2022/10/22 04:13:44;;;;;;;16.97;10.90;;;4.60;99.90;;;;;;5091501;28;20214;-69
2022/10/22 04:16:13;;;;;;;21.03;11.13;;;4.60;99.90;;;;;;5091813;28;20204;-69
2022/10/22 04:18:41;;;;;;;18.97;10.50;;;4.60;99.90;;;;;;5091358;28;20227;-69
2022/10/22 04:21:09;;;;;;;19.67;11.37;;;4.70;99.90;;;;;;5083950;28;20200;-70
2022/10/22 04:23:36;;;;;;;20.87;11.47;;;4.70;99.90;;;;;;5071064;28;20197;-69
2022/10/22 04:26:06;;;;;;;21.10;10.93;;;4.70;99.90;;;;;;5071070;28;20211;-69
2022/10/22 04:28:33;;;;;;;20.23;10.53;;;4.70;99.90;;;;;;5071278;28;20227;-70
2022/10/22 04:31:06;;;;;;;17.70;10.37;;;4.70;99.90;;;;;;5090648;28;20208;-70
2022/10/22 04:33:33;;;;;;;21.80;11.13;;;4.70;99.90;;;;;;5089912;28;20659;-69
2022/10/22 04:36:01;;;;;;;16.90;9.97;;;4.80;99.90;;;;;;5090361;28;20231;-70
2022/10/22 04:38:28;;;;;;;16.80;10.60;;;4.80;99.90;;;;;;5095141;28;20667;-70
2022/10/22 04:40:55;;;;;;;21.87;10.83;;;4.80;99.90;;;;;;5095181;28;20211;-69
2022/10/22 04:43:22;;;;;;;17.37;10.20;;;4.80;99.90;;;;;;5095152;28;20200;-71
2022/10/22 04:45:48;;;;;;;19.97;10.87;;;4.80;99.90;;;;;;5093183;28;20204;-70
2022/10/22 04:48:16;;;;;;;20.37;11.10;;;4.80;99.90;;;;;;5094920;28;20200;-69
2022/10/22 04:50:43;;;;;;;18.47;10.20;;;4.80;99.90;;;;;;5095208;28;20200;-70
2022/10/22 04:53:10;;;;;;;23.93;10.90;;;4.80;99.90;;;;;;5095113;28;20208;-70
2022/10/22 04:55:37;;;;;;;24.80;11.30;;;4.80;99.90;;;;;;5087678;28;20227;-70
2022/10/22 04:58:04;;;;;;;22.00;12.17;;;4.80;99.90;;;;;;5074477;28;20545;-71
2022/10/22 05:00:30;;;;;;;21.93;11.57;;;4.80;99.90;;;;;;5074484;28;20248;-70
2022/10/22 05:02:57;;;;;;;25.47;12.70;;;4.80;99.90;;;;;;5074222;28;20217;-71
2022/10/22 05:05:25;;;;;;;25.17;13.47;;;4.80;99.90;;;;;;5073933;28;20240;-69
2022/10/22 05:07:52;;;;;;;19.27;11.40;;;4.80;99.90;;;;;;5074478;28;20227;-70
2022/10/22 05:10:19;;;;;;;25.60;12.40;;;4.80;99.90;;;;;;5074347;28;20205;-69
2022/10/22 05:12:46;;;;;;;21.97;11.73;;;4.80;99.90;;;;;;5074330;28;20211;-70
2022/10/22 05:15:12;;;;;;;19.43;11.53;;;4.80;99.90;;;;;;5092977;28;20292;-71
2022/10/22 05:17:39;;;;;;;20.67;11.27;;;4.80;99.90;;;;;;5094135;28;20204;-71
2022/10/22 05:20:07;;;;;;;18.67;10.73;;;4.90;99.90;;;;;;5094210;28;20223;-70
2022/10/22 05:22:35;;;;;;;22.07;10.50;;;4.90;99.90;;;;;;5092449;28;20204;-70
2022/10/22 05:25:02;;;;;;;17.90;9.77;;;4.90;99.90;;;;;;5093653;28;20668;-71
2022/10/22 05:27:29;;;;;;;16.20;9.83;;;5.00;99.90;;;;;;5094352;28;20212;-69
2022/10/22 05:29:55;;;;;;;20.30;10.17;;;5.00;99.90;;;;;;5094033;28;20204;-69
2022/10/22 05:32:22;;;;;;;19.27;9.93;;;5.00;99.90;;;;;;5093171;28;20208;-69
2022/10/22 05:34:49;;;;;;;20.27;10.70;;;5.00;99.90;;;;;;5073633;28;20282;-71
2022/10/22 05:37:16;;;;;;;17.63;9.93;;;5.10;99.90;;;;;;5073668;28;20245;-70
2022/10/22 05:39:44;;;;;;;19.43;9.77;;;5.10;99.90;;;;;;5073535;28;20220;-70
2022/10/22 05:42:11;;;;;;;22.60;10.27;;;5.10;99.90;;;;;;5073645;28;20212;-70
2022/10/22 05:44:39;;;;;;;22.90;12.93;;;5.20;99.90;;;;;;5090457;28;20650;-70
2022/10/22 05:47:06;;;;;;;17.93;11.30;;;5.20;99.90;;;;;;5092181;28;20204;-72
2022/10/22 05:49:33;;;;;;;18.73;10.93;;;5.30;99.90;;;;;;5093890;28;20200;-71
2022/10/22 05:52:00;;;;;;;19.00;9.93;;;5.30;99.90;;;;;;5091964;28;20219;-69
2022/10/22 05:54:27;;;;;;;21.03;11.47;;;5.40;99.90;;;;;;5079715;28;20208;-69
2022/10/22 05:56:55;;;;;;;17.40;10.80;;;5.40;99.90;;;;;;5079058;28;20212;-70
2022/10/22 05:59:22;;;;;;;18.60;11.33;;;5.50;99.90;;;;;;5072984;28;20365;-70
2022/10/22 06:01:48;;;;;;;17.27;10.70;;;5.50;99.90;;;;;;5070878;28;20204;-70
2022/10/22 06:04:16;;;;;;;16.83;10.40;;;5.60;99.90;;;;;;5072963;28;20737;-70
2022/10/22 06:06:45;;;;;;;18.53;10.83;;;5.60;99.90;;;;;;5073076;28;20205;-68
2022/10/22 06:09:17;;;;;;;22.17;11.80;;;5.70;99.90;;;;;;5072771;28;20197;-68
2022/10/22 06:11:44;;;;;;;19.43;11.13;;;5.80;99.90;;;;;;5079268;28;20224;-70
2022/10/22 06:14:12;;;;;;;18.87;11.17;;;5.80;99.90;;;;;;5092919;28;20216;-69
2022/10/22 06:16:39;;;;;;;16.77;10.47;;;5.90;99.90;;;;;;5080516;28;20205;-69
2022/10/22 06:19:06;;;;;;;18.87;10.77;;;6.00;99.90;;;;;;5072571;28;20204;-70
2022/10/22 06:21:33;;;;;;;17.13;10.13;;;6.10;99.90;;;;;;5073062;28;20212;-70
2022/10/22 06:24:01;;;;;;;18.37;10.67;;;6.10;99.90;;;;;;5072573;28;20211;-72
2022/10/22 06:26:28;;;;;;;19.03;10.00;;;6.20;99.90;;;;;;5072319;28;20207;-72
2022/10/22 06:28:55;;;;;;;17.17;9.13;;;6.20;99.90;;;;;;5073499;28;20200;-71
2022/10/22 06:31:24;;;;;;;19.97;9.53;;;6.30;99.90;;;;;;5089101;28;20208;-71
2022/10/22 06:33:50;;;;;;;17.83;9.00;;;6.40;99.90;;;;;;5092131;28;20211;-71
2022/10/22 06:36:19;;;;;;;18.93;9.03;;;6.40;99.90;;;;;;5092316;28;20228;-70
2022/10/22 06:38:46;;;;;;;16.33;9.10;;;6.50;99.90;;;;;;5092746;28;20208;-70
2022/10/22 08:50:33;;;;;;;14.70;8.30;;;8.30;99.90;;;;;;5162617;27;20524;-69
2022/10/22 08:53:04;;;;;;;15.80;7.77;;;9.10;99.90;;;;;;5129593;28;20288;-69
2022/10/22 08:55:33;;;;;;;14.27;7.83;;;9.20;99.90;;;;;;5129436;27;20194;-69
2022/10/22 08:58:08;;;;;;;12.73;7.37;;;9.20;99.90;;;;;;5122967;27;20477;-69
2022/10/22 09:00:40;;;;;;;13.97;7.43;;;9.20;99.90;;;;;;5108880;28;20191;-69
2022/10/22 09:03:27;;;;;;;13.63;7.70;;;9.20;99.90;;;;;;5109323;28;20187;-69
2022/10/22 09:06:05;;;;;;;14.03;8.27;;;9.20;99.90;;;;;;5109475;28;20198;-69
2022/10/22 09:08:32;;;;;;;16.50;8.40;;;9.20;99.90;;;;;;5108851;28;20606;-69
2022/10/22 09:11:03;;;;;;;13.70;8.40;;;9.20;99.90;;;;;;5109096;28;20204;-69
2022/10/22 09:13:30;;;;;;;12.80;8.37;;;9.20;99.90;;;;;;5108724;28;20188;-70
2022/10/22 09:16:00;;;;;;;15.90;8.17;;;9.20;99.90;;;;;;5108855;28;20263;-69
2022/10/22 09:18:37;;;;;;;15.37;7.77;;;9.20;99.90;;;;;;5108809;28;20196;-68
2022/10/22 09:21:27;;;;;;;14.37;7.73;;;9.20;99.90;;;;;;5108883;28;20604;-71
2022/10/22 09:24:05;;;;;;;13.53;7.63;;;9.20;99.90;;;;;;5109173;28;20188;-69
2022/10/22 09:26:35;;;;;;;14.33;8.43;;;9.20;99.90;;;;;;5108809;28;20192;-69
2022/10/22 09:29:03;;;;;;;15.07;8.40;;;9.20;99.90;;;;;;5108543;28;20223;-69
2022/10/22 09:31:32;;;;;;;13.20;7.73;;;9.20;99.90;;;;;;5108214;28;20203;-68
2022/10/22 09:34:04;;;;;;;14.33;7.70;;;9.20;99.90;;;;;;5108767;28;20203;-70
2022/10/22 09:36:34;;;;;;;14.50;8.00;;;9.20;99.90;;;;;;5108168;28;20191;-68
2022/10/22 09:39:01;;;;;;;14.97;8.10;;;9.20;99.90;;;;;;5108241;28;20204;-71
2022/10/22 09:41:30;;;;;;;15.23;7.80;;;9.30;99.90;;;;;;5108370;28;20207;-69
2022/10/22 09:43:58;;;;;;;14.60;7.90;;;9.20;99.90;;;;;;5107789;28;20214;-71
2022/10/22 09:46:28;;;;;;;14.03;7.90;;;9.30;99.90;;;;;;5106953;28;20207;-68
2022/10/22 09:49:02;;;;;;;14.60;7.87;;;9.30;99.90;;;;;;5106235;28;20238;-69
2022/10/22 09:51:46;;;;;;;21.30;12.97;;;9.30;99.90;;;;;;5093764;28;20235;-70
2022/10/22 09:54:18;;;;;;;12.97;7.40;;;9.40;99.90;;;;;;5094625;28;20196;-68
2022/10/22 09:56:53;;;;;;;14.50;8.20;;;9.40;99.90;;;;;;5094560;28;20259;-69
2022/10/22 09:59:29;;;;;;;13.60;7.77;;;9.50;99.90;;;;;;5096472;28;20191;-70
2022/10/22 10:01:58;;;;;;;13.07;7.73;;;9.50;99.90;;;;;;5101726;28;20204;-70
2022/10/22 10:04:25;;;;;;;11.80;7.53;;;9.60;99.90;;;;;;5094413;28;20208;-70
2022/10/22 10:06:56;;;;;;;14.17;8.53;;;9.70;99.90;;;;;;5095960;28;20208;-71
2022/10/22 10:09:25;;;;;;;12.67;7.30;;;9.70;99.90;;;;;;5103273;28;20208;-70
2022/10/22 10:11:59;;;;;;;16.77;8.38;;;9.70;99.90;;;;;;5086909;28;20812;-69
2022/10/22 10:14:34;;;;;;;15.87;7.93;;;9.80;99.90;;;;;;5073819;28;20768;-71
2022/10/22 10:17:10;;;;;;;10.40;7.13;;;9.90;99.90;;;;;;5074220;28;20538;-71
2022/10/22 10:19:51;;;;;;;17.67;7.73;;;9.90;99.90;;;;;;5086286;28;20183;-73
2022/10/22 10:22:34;;;;;;;12.10;7.20;;;9.90;99.90;;;;;;5114746;28;20212;-71
2022/10/22 10:25:14;;;;;;;12.27;7.60;;;10.00;99.90;;;;;;5073906;28;20221;-69
2022/10/22 10:27:43;;;;;;;13.23;7.43;;;10.10;99.90;;;;;;5073581;28;20598;-71
2022/10/22 10:30:14;;;;;;;13.13;7.20;;;10.20;99.90;;;;;;5074019;28;20236;-70
2022/10/22 10:33:01;;;;;;;10.50;7.03;;;10.20;99.90;;;;;;5074013;28;20188;-70
2022/10/22 10:35:36;;;;;;;14.30;7.03;;;10.30;99.90;;;;;;5087023;28;20200;-71
2022/10/22 10:38:18;;;;;;;14.87;8.50;;;10.30;99.90;;;;;;5091834;28;20203;-70
2022/10/22 10:40:50;;;;;;;18.00;7.67;;;10.40;99.90;;;;;;5093144;28;20203;-70
2022/10/22 10:43:28;;;;;;;12.27;7.13;;;10.40;99.90;;;;;;5093551;28;20192;-70
2022/10/22 10:46:06;;;;;;;11.33;7.17;;;10.50;99.90;;;;;;5091552;28;20547;-70
2022/10/22 10:48:45;;;;;;;12.60;7.17;;;10.60;99.90;;;;;;5090625;28;20246;-71
2022/10/22 10:51:25;;;;;;;13.07;7.53;;;10.60;99.90;;;;;;5092590;28;20638;-72
2022/10/22 10:54:07;;;;;;;17.40;8.40;;;10.70;99.90;;;;;;5092371;28;20195;-70
2022/10/22 10:56:40;;;;;;;12.93;7.80;;;10.70;99.90;;;;;;5078976;28;20224;-70
2022/10/22 10:59:16;;;;;;;14.67;7.87;;;10.70;99.90;;;;;;5072780;28;20185;-71
2022/10/22 11:01:53;;;;;;;18.93;8.13;;;10.70;99.90;;;;;;5072412;28;20188;-71
2022/10/22 11:04:51;;;;;;;14.30;7.37;;;10.80;99.90;;;;;;5072718;28;20609;-72
2022/10/22 11:07:24;;;;;;;11.97;7.20;;;10.80;99.90;;;;;;5060819;28;20216;-72
2022/10/22 11:09:57;;;;;;;13.50;7.73;;;10.80;99.90;;;;;;5073173;28;20571;-73
2022/10/22 11:12:28;;;;;;;13.57;7.73;;;10.80;99.90;;;;;;5073013;28;20550;-69
2022/10/22 11:15:01;;;;;;;13.00;7.60;;;10.80;99.90;;;;;;5072801;28;20192;-71
2022/10/22 11:17:36;;;;;;;12.57;7.50;;;10.80;99.90;;;;;;5082158;28;20208;-71
2022/10/22 11:20:14;;;;;;;13.70;8.03;;;10.80;99.90;;;;;;5092876;28;20186;-72
2022/10/22 11:22:46;;;;;;;14.37;8.03;;;10.80;99.90;;;;;;5093669;28;20279;-70
2022/10/22 11:25:19;;;;;;;16.63;8.03;;;10.90;99.90;;;;;;5092965;28;20192;-73
2022/10/22 11:27:49;;;;;;;13.53;7.67;;;10.90;99.90;;;;;;5093262;28;20531;-70
2022/10/22 11:30:18;;;;;;;15.77;7.83;;;10.90;99.90;;;;;;5092964;28;20577;-71
2022/10/22 11:32:49;;;;;;;13.37;8.10;;;10.90;99.90;;;;;;5092224;28;20192;-70
2022/10/22 15:59:12;;;;;;;39.43;23.00;;;10.60;99.90;;;;;;5094266;27;20528;-69
2022/10/22 16:01:39;;;;;;;39.43;22.47;;;10.90;99.90;;;;;;5068356;28;20565;-72
2022/10/22 16:04:07;;;;;;;38.83;22.67;;;10.90;99.90;;;;;;5068445;28;20193;-69
2022/10/22 16:06:35;;;;;;;43.30;22.97;;;10.90;99.90;;;;;;5068114;28;20283;-69
2022/10/22 16:09:04;;;;;;;36.87;22.67;;;10.90;99.90;;;;;;5068711;28;20558;-72
2022/10/22 16:11:32;;;;;;;46.43;23.67;;;10.80;99.90;;;;;;5065592;28;20200;-70
2022/10/22 16:14:00;;;;;;;42.33;23.33;;;10.80;99.90;;;;;;5068548;28;20200;-70
2022/10/22 16:16:30;;;;;;;53.00;27.93;;;10.80;99.90;;;;;;5068386;28;20657;-69
2022/10/22 16:18:57;;;;;;;52.07;25.60;;;10.70;99.90;;;;;;5068560;28;20299;-68
2022/10/22 16:21:25;;;;;;;48.33;26.27;;;10.70;99.90;;;;;;5068125;28;20209;-68
2022/10/22 16:23:52;;;;;;;50.30;26.60;;;10.60;99.90;;;;;;5049323;28;20208;-69
2022/10/22 16:26:20;;;;;;;50.20;27.50;;;10.60;99.90;;;;;;5048048;28;20816;-71
2022/10/22 16:28:48;;;;;;;50.13;25.93;;;10.60;99.90;;;;;;5065690;28;20216;-72
2022/10/22 16:31:18;;;;;;;50.43;28.10;;;10.60;99.90;;;;;;5068380;28;20687;-70
2022/10/22 16:33:46;;;;;;;54.20;28.50;;;10.50;99.90;;;;;;5054784;28;20241;-70
2022/10/22 16:36:19;;;;;;;56.23;29.67;;;10.50;99.90;;;;;;5048195;28;20215;-70
2022/10/22 16:38:46;;;;;;;69.30;35.93;;;10.50;99.90;;;;;;5064923;28;20329;-68
2022/10/22 16:41:15;;;;;;;76.87;37.17;;;10.40;99.90;;;;;;5067940;28;20209;-67
2022/10/22 16:43:43;;;;;;;78.40;39.13;;;10.40;99.90;;;;;;5053534;28;20213;-68
2022/10/22 16:46:10;;;;;;;73.73;37.53;;;10.30;99.90;;;;;;5047787;28;20210;-68
2022/10/22 16:48:40;;;;;;;74.43;37.17;;;10.30;99.90;;;;;;5047706;28;20209;-70
2022/10/22 16:51:10;;;;;;;67.20;35.27;;;10.30;99.90;;;;;;5048142;28;20266;-69
2022/10/22 16:53:37;;;;;;;63.00;32.43;;;10.30;99.90;;;;;;5061612;28;20229;-68
2022/10/22 16:56:04;;;;;;;62.50;31.63;;;10.30;99.90;;;;;;5058940;28;20212;-68
2022/10/22 16:58:32;;;;;;;56.27;29.27;;;10.30;99.90;;;;;;5053039;28;20226;-68
2022/10/22 17:00:58;;;;;;;52.33;27.80;;;10.30;99.90;;;;;;5047654;28;20206;-68
2022/10/22 17:03:25;;;;;;;50.03;27.93;;;10.30;99.90;;;;;;5048131;28;20210;-71
2022/10/22 17:05:52;;;;;;;47.33;26.33;;;10.20;99.90;;;;;;5054144;28;20623;-71
2022/10/22 17:08:20;;;;;;;60.90;31.97;;;10.20;99.90;;;;;;5038404;28;20704;-73
2022/10/22 17:10:47;;;;;;;56.70;31.17;;;10.20;99.90;;;;;;5050455;28;20670;-71
2022/10/22 17:13:14;;;;;;;75.63;35.93;;;10.20;99.90;;;;;;5039943;28;20206;-74
2022/10/22 17:15:41;;;;;;;73.27;35.57;;;10.20;99.90;;;;;;5037253;28;20199;-71
2022/10/22 17:18:07;;;;;;;62.50;32.73;;;10.10;99.90;;;;;;5041631;28;20224;-72
2022/10/22 17:20:34;;;;;;;51.10;29.10;;;10.10;99.90;;;;;;5044875;28;20229;-72
2022/10/22 17:23:01;;;;;;;47.03;26.43;;;10.10;99.90;;;;;;5049192;28;20197;-70
2022/10/22 17:25:40;;;;;;;52.43;27.23;;;10.10;99.90;;;;;;5051036;28;20297;-72
2022/10/22 17:28:07;;;;;;;53.97;27.67;;;10.00;99.90;;;;;;5039280;28;20317;-70
2022/10/22 17:30:37;;;;;;;49.17;28.10;;;10.00;99.90;;;;;;5053837;28;20571;-71
2022/10/22 17:33:04;;;;;;;49.93;27.93;;;10.00;99.90;;;;;;5034025;28;20206;-71
2022/10/22 17:35:31;;;;;;;50.93;28.00;;;10.00;99.90;;;;;;5037013;28;20671;-72
2022/10/22 17:37:58;;;;;;;47.93;28.07;;;10.00;99.90;;;;;;5053633;28;20232;-72
2022/10/22 17:40:25;;;;;;;45.97;25.63;;;10.00;99.90;;;;;;5053438;28;20240;-73
2022/10/22 17:42:54;;;;;;;43.40;25.50;;;10.00;99.90;;;;;;5053552;28;20247;-72
2022/10/22 17:45:20;;;;;;;46.03;26.53;;;10.00;99.90;;;;;;5045288;28;20221;-72
2022/10/22 17:47:47;;;;;;;45.30;25.33;;;10.00;99.90;;;;;;5033787;28;20281;-71
2022/10/22 17:50:14;;;;;;;47.57;25.90;;;10.00;99.90;;;;;;5050633;28;20206;-72
2022/10/22 17:52:41;;;;;;;46.50;25.60;;;10.00;99.90;;;;;;5053587;28;20205;-72
2022/10/22 17:55:08;;;;;;;44.17;25.13;;;10.00;99.90;;;;;;5052960;28;20233;-71
2022/10/22 17:57:35;;;;;;;43.23;24.47;;;10.00;99.90;;;;;;5053269;28;20263;-71
2022/10/22 18:00:04;;;;;;;43.97;24.53;;;10.00;99.90;;;;;;5053270;28;20205;-71
2022/10/22 18:02:31;;;;;;;51.90;28.63;;;10.00;99.90;;;;;;5045898;28;20679;-71
2022/10/22 18:04:58;;;;;;;54.17;28.30;;;10.10;99.90;;;;;;5053084;28;20213;-74
2022/10/22 18:07:25;;;;;;;62.43;32.73;;;10.10;99.90;;;;;;5049561;28;20201;-71
2022/10/22 18:09:51;;;;;;;62.73;34.83;;;10.10;99.90;;;;;;5047007;28;20236;-73
2022/10/22 18:12:18;;;;;;;67.17;35.60;;;10.10;99.90;;;;;;5032851;28;20568;-71
2022/10/22 18:14:45;;;;;;;71.07;38.23;;;10.00;99.90;;;;;;5032766;28;20202;-72
2022/10/22 18:17:14;;;;;;;72.17;37.30;;;10.00;99.90;;;;;;5033342;28;20221;-72
2022/10/22 18:19:40;;;;;;;71.70;36.97;;;10.00;99.90;;;;;;5033312;28;20210;-72
2022/10/22 18:22:07;;;;;;;66.70;35.57;;;10.00;99.90;;;;;;5032921;28;20208;-73
2022/10/22 18:24:37;;;;;;;66.77;34.77;;;9.90;99.90;;;;;;5033224;28;20662;-73
2022/10/22 18:27:04;;;;;;;59.33;33.23;;;9.90;99.90;;;;;;5033197;28;20351;-72
2022/10/22 18:29:31;;;;;;;56.03;31.27;;;9.90;99.90;;;;;;5030949;28;20210;-71
2022/10/22 18:31:58;;;;;;;56.07;30.43;;;9.90;99.90;;;;;;5032349;28;20678;-71
2022/10/22 18:34:26;;;;;;;55.10;29.33;;;9.90;99.90;;;;;;5032282;28;20198;-72
2022/10/22 18:36:53;;;;;;;54.23;29.00;;;9.90;99.90;;;;;;5042850;28;20228;-73
2022/10/22 18:39:20;;;;;;;52.20;29.07;;;9.90;99.90;;;;;;5035699;28;20240;-73
2022/10/22 18:41:46;;;;;;;51.03;29.03;;;9.90;99.90;;;;;;5044254;28;20656;-71
2022/10/22 18:44:15;;;;;;;47.00;26.17;;;10.00;99.90;;;;;;5032520;28;20233;-71
2022/10/22 18:46:42;;;;;;;48.50;27.30;;;10.00;99.90;;;;;;5034816;28;20200;-71
2022/10/22 18:49:13;;;;;;;53.90;27.97;;;10.00;99.90;;;;;;5033827;28;20559;-72
2022/10/22 18:51:41;;;;;;;47.70;27.23;;;10.00;99.90;;;;;;5033227;28;20568;-72
2022/10/22 18:54:10;;;;;;;49.00;27.23;;;10.00;99.90;;;;;;5044245;28;20208;-72
2022/10/22 18:56:37;;;;;;;46.43;28.67;;;10.10;99.90;;;;;;5041521;28;20223;-72
2022/10/22 18:59:04;;;;;;;47.77;28.03;;;10.10;99.90;;;;;;5053645;28;20399;-72
2022/10/22 19:01:34;;;;;;;50.60;29.33;;;10.10;99.90;;;;;;5041041;28;20217;-70
2022/10/22 19:04:00;;;;;;;50.77;29.93;;;10.10;99.90;;;;;;5039658;28;20220;-74
2022/10/22 19:06:30;;;;;;;50.13;30.10;;;10.10;99.90;;;;;;5052148;28;20205;-71
2022/10/22 19:08:59;;;;;;;52.33;30.90;;;10.10;99.90;;;;;;5051852;28;20200;-69
2022/10/22 19:11:26;;;;;;;56.73;31.30;;;10.20;99.90;;;;;;5035587;28;20220;-70
2022/10/22 19:13:53;;;;;;;55.30;32.07;;;10.20;99.90;;;;;;5031313;28;20213;-70
2022/10/22 19:16:22;;;;;;;63.60;33.57;;;10.20;99.90;;;;;;5032143;28;20206;-70
2022/10/22 19:18:51;;;;;;;64.87;36.37;;;10.20;99.90;;;;;;5032370;28;20763;-69
2022/10/22 19:21:18;;;;;;;73.70;38.13;;;10.20;99.90;;;;;;5031776;28;20202;-68